createdAt,value
2023-01-19T00:00:39.654Z,1.65
2023-01-19T00:03:16.320Z,1.62
2023-01-19T00:05:44.566Z,1.56
2023-01-19T00:08:15.696Z,1.50
2023-01-19T00:10:45.979Z,1.44
2023-01-19T00:13:14.736Z,1.40
2023-01-19T00:15:41.720Z,1.36
2023-01-19T00:18:10.547Z,1.31
2023-01-19T00:20:41.353Z,1.22
2023-01-19T00:23:09.500Z,1.17
2023-01-19T00:25:42.493Z,1.17
2023-01-19T00:28:15.918Z,1.18
2023-01-19T00:30:43.811Z,1.14
2023-01-19T00:33:15.473Z,1.13
2023-01-19T00:35:42.735Z,1.13
2023-01-19T00:38:11.943Z,1.10
2023-01-19T00:40:38.842Z,1.06
2023-01-19T00:43:05.776Z,1.06
2023-01-19T00:45:33.611Z,1.07
2023-01-19T00:48:00.549Z,1.11
2023-01-19T00:50:29.878Z,1.12
2023-01-19T00:52:58.287Z,1.13
2023-01-19T00:55:25.344Z,1.15
2023-01-19T00:57:52.234Z,1.15
2023-01-19T01:00:20.276Z,1.14
2023-01-19T01:02:50.234Z,1.12
2023-01-19T01:05:18.101Z,1.12
2023-01-19T01:07:46.137Z,1.13
2023-01-19T01:10:23.310Z,1.12
2023-01-19T01:12:57.399Z,1.11
2023-01-19T01:15:29.927Z,1.11
2023-01-19T01:17:56.918Z,1.14
2023-01-19T01:20:28.670Z,1.14
2023-01-19T01:22:57.714Z,1.17
2023-01-19T01:25:27.630Z,1.22
2023-01-19T01:27:55.510Z,1.25
2023-01-19T01:30:22.752Z,1.25
2023-01-19T01:32:50.193Z,1.23
2023-01-19T01:35:17.375Z,1.21
2023-01-19T01:37:44.738Z,1.19
2023-01-19T01:40:15.873Z,1.17
2023-01-19T01:42:42.957Z,1.17
2023-01-19T01:45:39.482Z,1.15
2023-01-19T01:48:30.402Z,1.15
2023-01-19T01:51:25.940Z,1.13
2023-01-19T01:54:03.481Z,1.13
2023-01-19T01:56:42.503Z,1.14
2023-01-19T01:59:26.847Z,1.06
2023-01-19T02:02:25.565Z,0.91
2023-01-19T02:05:04.795Z,0.80
2023-01-19T02:08:19.808Z,0.76
2023-01-19T02:11:06.785Z,0.74
2023-01-19T02:13:39.880Z,0.69
2023-01-19T02:16:09.244Z,0.63
2023-01-19T02:18:37.510Z,0.60
2023-01-19T02:21:12.782Z,0.56
2023-01-19T02:23:45.385Z,0.54
2023-01-19T02:26:22.042Z,0.45
2023-01-19T02:28:57.605Z,0.31
2023-01-19T02:31:27.301Z,0.21
2023-01-19T02:33:55.967Z,0.16
2023-01-19T02:36:38.367Z,0.14
2023-01-19T02:39:09.742Z,0.12
2023-01-19T02:41:48.993Z,0.14
2023-01-19T02:44:19.938Z,0.14
2023-01-19T02:46:47.471Z,0.08
2023-01-19T02:49:14.575Z,0.02
2023-01-19T02:51:44.505Z,0.03
2023-01-19T02:54:32.490Z,0.01
2023-01-19T02:57:23.913Z,0.02
2023-01-19T03:00:28.732Z,0.02
2023-01-19T03:03:08.004Z,0.01
2023-01-19T03:05:45.623Z,0.05
2023-01-19T03:08:38.396Z,0.08
2023-01-19T03:11:12.663Z,0.11
2023-01-19T03:14:04.054Z,0.12
2023-01-19T03:16:45.604Z,0.13
2023-01-19T03:19:44.159Z,0.11
2023-01-19T03:22:28.387Z,0.07
2023-01-19T03:25:01.757Z,0.01
2023-01-19T03:27:35.224Z,-0.04
2023-01-19T03:30:13.143Z,-0.10
2023-01-19T03:32:53.317Z,-0.12
2023-01-19T03:35:24.588Z,-0.13
2023-01-19T03:37:55.912Z,-0.13
2023-01-19T03:40:30.298Z,-0.17
2023-01-19T03:42:58.844Z,-0.24
2023-01-19T03:45:26.887Z,-0.28
2023-01-19T03:47:55.441Z,-0.32
2023-01-19T03:50:29.598Z,-0.36
2023-01-19T03:53:13.531Z,-0.36
2023-01-19T03:55:46.469Z,-0.39
2023-01-19T03:58:13.636Z,-0.40
2023-01-19T04:00:40.772Z,-0.40
2023-01-19T04:03:14.612Z,-0.39
2023-01-19T04:05:41.929Z,-0.37
2023-01-19T04:08:08.924Z,-0.37
2023-01-19T04:10:36.844Z,-0.37
2023-01-19T04:13:04.965Z,-0.39
2023-01-19T04:15:32.628Z,-0.40
2023-01-19T04:18:02.539Z,-0.40
2023-01-19T04:20:29.750Z,-0.41
2023-01-19T04:23:01.095Z,-0.41
2023-01-19T04:25:29.133Z,-0.42
2023-01-19T04:27:58.256Z,-0.41
2023-01-19T04:30:27.416Z,-0.42
2023-01-19T04:32:55.517Z,-0.42
2023-01-19T04:35:23.665Z,-0.40
2023-01-19T04:37:50.599Z,-0.40
2023-01-19T04:40:17.617Z,-0.37
2023-01-19T04:42:46.035Z,-0.38
2023-01-19T04:45:14.042Z,-0.39
2023-01-19T04:47:42.784Z,-0.37
2023-01-19T04:50:11.428Z,-0.37
2023-01-19T04:52:38.453Z,-0.34
2023-01-19T04:55:06.885Z,-0.33
2023-01-19T04:57:33.840Z,-0.30
2023-01-19T05:00:01.168Z,-0.26
2023-01-19T05:02:28.144Z,-0.23
2023-01-19T05:04:54.956Z,-0.23
2023-01-19T05:07:21.821Z,-0.20
2023-01-19T05:09:48.707Z,-0.18
2023-01-19T05:12:16.445Z,-0.16
2023-01-19T05:14:43.571Z,-0.16
2023-01-19T05:17:10.992Z,-0.15
2023-01-19T05:19:39.012Z,-0.12
2023-01-19T05:22:07.284Z,-0.11
2023-01-19T05:24:34.164Z,-0.10
2023-01-19T05:27:01.934Z,-0.07
2023-01-19T05:29:28.794Z,-0.05
2023-01-19T05:31:55.790Z,-0.04
2023-01-19T05:34:22.619Z,-0.04
2023-01-19T05:36:49.524Z,-0.04
2023-01-19T05:39:16.389Z,-0.04
2023-01-19T05:41:45.422Z,-0.06
2023-01-19T05:44:13.017Z,-0.06
2023-01-19T05:46:40.869Z,-0.07
2023-01-19T05:49:10.141Z,-0.06
2023-01-19T05:51:45.153Z,-0.06
2023-01-19T05:54:15.411Z,-0.06
2023-01-19T05:56:43.400Z,-0.07
2023-01-19T05:59:10.961Z,-0.05
2023-01-19T06:01:39.824Z,-0.04
2023-01-19T06:04:08.965Z,-0.03
2023-01-19T06:06:35.840Z,-0.02
2023-01-19T06:09:02.675Z,-0.01
2023-01-19T06:11:29.565Z,0.01
2023-01-19T06:13:56.336Z,0.03
2023-01-19T06:16:23.283Z,0.03
2023-01-19T06:18:50.097Z,0.06
2023-01-19T06:21:17.077Z,0.11
2023-01-19T06:23:43.935Z,0.11
2023-01-19T06:26:11.368Z,0.12
2023-01-19T06:28:38.237Z,0.16
2023-01-19T06:31:05.367Z,0.22
2023-01-19T06:33:32.279Z,0.23
2023-01-19T06:35:59.513Z,0.24
2023-01-19T06:38:26.478Z,0.26
2023-01-19T06:40:58.978Z,0.24
2023-01-19T06:43:27.158Z,0.24
2023-01-19T06:45:54.818Z,0.25
2023-01-19T06:48:22.378Z,0.27
2023-01-19T06:50:50.157Z,0.27
2023-01-19T06:53:19.811Z,0.27
2023-01-19T06:55:47.059Z,0.29
2023-01-19T06:58:14.240Z,0.26
2023-01-19T07:00:41.384Z,0.26
2023-01-19T07:03:09.102Z,0.27
2023-01-19T07:05:36.649Z,0.28
2023-01-19T07:08:04.358Z,0.27
2023-01-19T07:11:23.673Z,0.29
2023-01-19T07:13:18.551Z,0.32
2023-01-19T07:15:45.436Z,0.35
2023-01-19T07:18:12.447Z,0.33
2023-01-19T07:20:39.392Z,0.34
2023-01-19T07:23:06.278Z,0.36
2023-01-19T07:25:33.175Z,0.35
2023-01-19T07:28:00.702Z,0.38
2023-01-19T07:30:28.791Z,0.41
2023-01-19T07:32:58.075Z,0.39
2023-01-19T07:35:26.127Z,0.42
2023-01-19T07:37:53.067Z,0.44
2023-01-19T07:40:19.967Z,0.43
2023-01-19T07:42:52.052Z,0.45
2023-01-19T07:45:20.951Z,0.48
2023-01-19T07:47:49.763Z,0.54
2023-01-19T07:50:21.410Z,0.60
2023-01-19T07:52:53.434Z,0.64
2023-01-19T07:55:20.844Z,0.69
2023-01-19T07:57:52.003Z,0.73
2023-01-19T08:00:22.093Z,0.76
2023-01-19T08:02:51.887Z,0.76
2023-01-19T08:05:20.554Z,0.75
2023-01-19T08:07:48.384Z,0.76
2023-01-19T08:10:18.480Z,0.75
2023-01-19T08:12:45.293Z,0.75
2023-01-19T08:15:12.253Z,0.75
2023-01-19T08:17:39.090Z,0.77
2023-01-19T08:20:08.636Z,0.76
2023-01-19T08:22:35.643Z,0.76
2023-01-19T08:25:02.577Z,0.72
2023-01-19T08:27:30.761Z,0.71
2023-01-19T08:29:58.907Z,0.68
2023-01-19T08:32:25.833Z,0.67
2023-01-19T08:34:52.677Z,0.66
2023-01-19T08:37:19.555Z,0.71
2023-01-19T08:39:46.432Z,0.82
2023-01-19T08:42:13.239Z,0.90
2023-01-19T08:44:49.704Z,0.98
2023-01-19T08:47:23.816Z,1.03
2023-01-19T08:49:50.671Z,1.05
2023-01-19T08:52:17.486Z,1.08
2023-01-19T08:54:44.349Z,1.10
2023-01-19T08:57:11.241Z,1.10
2023-01-19T08:59:38.216Z,1.07
2023-01-19T09:02:05.007Z,1.05
2023-01-19T09:04:34.475Z,1.02
2023-01-19T09:07:01.545Z,1.01
2023-01-19T09:09:28.464Z,0.99
2023-01-19T09:11:56.380Z,0.96
2023-01-19T09:14:23.278Z,0.92
2023-01-19T09:16:50.147Z,0.87
2023-01-19T09:19:17.051Z,0.83
2023-01-19T09:21:43.916Z,0.77
2023-01-19T09:24:10.840Z,0.74
2023-01-19T09:26:39.235Z,0.72
2023-01-19T09:29:06.184Z,0.76
2023-01-19T09:31:33.102Z,0.86
2023-01-19T09:34:00.022Z,0.95
2023-01-19T09:36:27.548Z,1.00
2023-01-19T09:38:54.399Z,0.98
2023-01-19T09:41:22.831Z,0.98
2023-01-19T09:44:00.990Z,0.98
2023-01-19T09:46:41.465Z,0.98
2023-01-19T09:49:31.536Z,0.97
2023-01-19T09:51:59.359Z,0.97
2023-01-19T09:54:55.123Z,0.99
2023-01-19T09:57:25.235Z,1.00
2023-01-19T09:59:57.905Z,1.03
2023-01-19T10:02:24.923Z,1.06
2023-01-19T10:05:26.298Z,1.09
2023-01-19T10:08:46.609Z,1.15
2023-01-19T10:11:52.695Z,1.11
2023-01-19T10:14:44.572Z,1.17
2023-01-19T10:17:45.205Z,1.30
2023-01-19T10:20:28.187Z,1.38
2023-01-19T10:22:59.332Z,1.42
2023-01-19T10:25:27.932Z,1.44
2023-01-19T10:27:54.943Z,1.42
2023-01-19T10:30:26.266Z,1.49
2023-01-19T10:32:53.776Z,1.66
2023-01-19T10:35:25.182Z,1.91
2023-01-19T10:38:02.898Z,2.18
2023-01-19T10:40:53.670Z,2.22
2023-01-19T10:43:35.649Z,2.21
2023-01-19T10:46:08.178Z,2.15
2023-01-19T10:48:42.011Z,2.10
2023-01-19T10:51:11.139Z,2.03
2023-01-19T10:53:38.571Z,2.00
2023-01-19T10:56:16.335Z,2.03
2023-01-19T10:58:43.459Z,2.05
2023-01-19T11:01:27.187Z,2.08
2023-01-19T11:04:00.072Z,2.22
2023-01-19T11:06:30.108Z,2.42
2023-01-19T11:09:16.081Z,2.56
2023-01-19T11:11:52.638Z,2.73
2023-01-19T11:14:34.610Z,2.90
2023-01-19T11:17:01.533Z,3.15
2023-01-19T11:19:33.014Z,3.41
2023-01-19T11:22:27.479Z,3.60
2023-01-19T11:25:03.656Z,3.66
2023-01-19T11:27:36.122Z,3.73
2023-01-19T11:30:22.838Z,3.76
2023-01-19T11:32:49.702Z,3.84
2023-01-19T11:35:36.684Z,3.92
2023-01-19T11:38:20.889Z,4.08
2023-01-19T11:40:58.235Z,4.06
2023-01-19T11:43:39.821Z,4.10
2023-01-19T11:46:16.729Z,4.20
2023-01-19T11:49:02.844Z,4.32
2023-01-19T11:52:01.404Z,4.38
2023-01-19T11:54:52.272Z,4.48
2023-01-19T11:57:20.148Z,4.44
2023-01-19T11:59:47.364Z,4.50
2023-01-19T12:02:36.234Z,4.38
2023-01-19T12:05:13.193Z,4.36
2023-01-19T12:07:42.640Z,4.34
2023-01-19T12:10:31.419Z,4.39
2023-01-19T12:12:59.318Z,4.37
2023-01-19T12:15:41.931Z,4.51
2023-01-19T12:18:20.996Z,4.57
2023-01-19T12:20:53.167Z,4.54
2023-01-19T12:23:55.977Z,4.50
2023-01-19T12:26:49.425Z,4.47
2023-01-19T12:29:21.933Z,4.37
2023-01-19T12:32:13.553Z,4.35
2023-01-19T12:34:44.196Z,4.32
2023-01-19T12:37:40.507Z,4.36
2023-01-19T12:40:26.122Z,4.47
2023-01-19T12:43:03.235Z,4.60
2023-01-19T12:45:39.902Z,4.85
2023-01-19T12:48:25.231Z,4.98
2023-01-19T12:50:52.444Z,4.96
2023-01-19T12:53:22.556Z,4.86
2023-01-19T12:56:01.067Z,4.78
2023-01-19T12:58:28.864Z,4.71
2023-01-19T13:01:34.270Z,4.73
2023-01-19T13:04:32.612Z,4.84
2023-01-19T13:07:05.788Z,5.07
2023-01-19T13:09:38.572Z,5.25
2023-01-19T13:12:14.428Z,5.33
2023-01-19T13:14:43.427Z,5.51
2023-01-19T13:17:26.501Z,5.68
2023-01-19T13:20:19.191Z,5.84
2023-01-19T13:23:34.138Z,5.85
2023-01-19T13:26:15.435Z,5.97
2023-01-19T13:28:48.287Z,5.91
2023-01-19T13:31:16.368Z,5.81
2023-01-19T13:33:59.045Z,5.79
2023-01-19T13:36:37.535Z,5.77
2023-01-19T13:39:16.570Z,5.75
2023-01-19T13:41:47.411Z,5.50
2023-01-19T13:44:27.480Z,5.53
2023-01-19T13:46:59.879Z,5.72
2023-01-19T13:49:33.672Z,5.93
2023-01-19T13:52:19.221Z,5.98
2023-01-19T13:55:02.458Z,5.89
2023-01-19T13:57:43.809Z,5.66
2023-01-19T14:00:16.593Z,5.71
2023-01-19T14:03:04.885Z,5.79
2023-01-19T14:05:38.098Z,5.63
2023-01-19T14:08:13.606Z,5.62
2023-01-19T14:11:02.532Z,5.54
2023-01-19T14:13:34.872Z,5.47
2023-01-19T14:16:08.652Z,5.44
2023-01-19T14:18:36.689Z,5.31
2023-01-19T14:21:11.856Z,5.10
2023-01-19T14:24:17.104Z,4.73
2023-01-19T14:26:49.154Z,4.32
2023-01-19T14:29:32.745Z,4.03
2023-01-19T14:32:25.190Z,3.85
2023-01-19T14:35:07.248Z,3.81
2023-01-19T14:37:38.219Z,3.88
2023-01-19T14:40:25.380Z,3.88
2023-01-19T14:43:06.273Z,3.93
2023-01-19T14:45:47.427Z,3.96
2023-01-19T14:48:21.801Z,4.01
2023-01-19T14:51:02.800Z,3.85
2023-01-19T14:53:37.540Z,3.63
2023-01-19T14:56:06.801Z,3.46
2023-01-19T14:58:49.561Z,3.40
2023-01-19T15:01:16.481Z,3.37
2023-01-19T15:03:45.427Z,3.33
2023-01-19T15:06:18.068Z,3.26
2023-01-19T15:08:46.195Z,3.20
2023-01-19T15:11:34.011Z,3.16
2023-01-19T15:14:02.386Z,3.08
2023-01-19T15:16:33.124Z,3.03
2023-01-19T15:19:00.575Z,2.95
2023-01-19T15:21:27.619Z,2.88
2023-01-19T15:23:55.438Z,2.81
2023-01-19T15:26:26.354Z,2.76
2023-01-19T15:28:55.713Z,2.68
2023-01-19T15:31:26.147Z,2.66
2023-01-19T15:33:53.192Z,2.64
2023-01-19T15:36:24.566Z,2.60
2023-01-19T15:38:51.486Z,2.55
2023-01-19T15:41:28.671Z,2.51
2023-01-19T15:43:57.401Z,2.46
2023-01-19T15:46:25.875Z,2.43
2023-01-19T15:48:53.998Z,2.40
2023-01-19T15:51:27.741Z,2.39
2023-01-19T15:53:55.932Z,2.37
2023-01-19T15:56:27.185Z,2.34
2023-01-19T15:58:55.837Z,2.32
2023-01-19T16:01:34.025Z,2.29
2023-01-19T16:04:07.124Z,2.21
2023-01-19T16:06:34.242Z,2.13
2023-01-19T16:09:01.764Z,2.04
2023-01-19T16:11:32.066Z,1.97
2023-01-19T16:13:59.172Z,1.92
2023-01-19T16:16:28.092Z,1.89
2023-01-19T16:18:56.210Z,1.84
2023-01-19T16:21:24.068Z,1.77
2023-01-19T16:23:51.128Z,1.70
2023-01-19T16:26:34.399Z,1.65
2023-01-19T16:29:08.770Z,1.60
2023-01-19T16:31:41.638Z,1.53
2023-01-19T16:34:09.796Z,1.48
2023-01-19T16:36:40.493Z,1.42
2023-01-19T16:39:12.759Z,1.38
2023-01-19T16:41:40.912Z,1.36
2023-01-19T16:44:09.844Z,1.33
2023-01-19T16:46:40.895Z,1.26
2023-01-19T16:49:15.698Z,1.21
2023-01-19T16:51:43.036Z,1.20
2023-01-19T16:54:14.823Z,1.14
2023-01-19T16:56:42.328Z,1.10
2023-01-19T16:59:14.335Z,1.04
2023-01-19T17:01:44.514Z,1.02
2023-01-19T17:04:13.497Z,0.99
2023-01-19T17:06:40.585Z,0.95
2023-01-19T17:09:09.459Z,0.92
2023-01-19T17:11:37.372Z,0.88
2023-01-19T17:14:15.682Z,0.84
2023-01-19T17:16:43.910Z,0.81
2023-01-19T17:19:16.589Z,0.77
2023-01-19T17:21:51.314Z,0.72
2023-01-19T17:24:18.976Z,0.67
2023-01-19T17:26:49.643Z,0.65
2023-01-19T17:29:17.021Z,0.65
2023-01-19T17:31:44.433Z,0.65
2023-01-19T17:34:11.402Z,0.63
2023-01-19T17:36:38.427Z,0.58
2023-01-19T17:39:09.033Z,0.55
2023-01-19T17:41:36.274Z,0.54
2023-01-19T17:44:05.638Z,0.56
2023-01-19T17:46:37.318Z,0.55
2023-01-19T17:49:07.462Z,0.56
2023-01-19T17:51:35.043Z,0.53
2023-01-19T17:54:01.839Z,0.53
2023-01-19T17:56:36.686Z,0.52
2023-01-19T17:59:06.565Z,0.50
2023-01-19T18:01:37.121Z,0.50
2023-01-19T18:04:04.187Z,0.48
2023-01-19T18:06:31.001Z,0.45
2023-01-19T18:09:01.481Z,0.44
2023-01-19T18:11:29.099Z,0.40
2023-01-19T18:13:56.399Z,0.36
2023-01-19T18:16:27.410Z,0.33
2023-01-19T18:18:56.859Z,0.28
2023-01-19T18:21:28.259Z,0.24
2023-01-19T18:24:05.345Z,0.19
2023-01-19T18:26:34.946Z,0.14
2023-01-19T18:29:01.910Z,0.12
2023-01-19T18:31:28.910Z,0.14
2023-01-19T18:33:55.884Z,0.16
2023-01-19T18:36:23.073Z,0.16
2023-01-19T18:38:50.157Z,0.15
2023-01-19T18:41:20.737Z,0.15
2023-01-19T18:43:48.767Z,0.13
2023-01-19T18:46:16.300Z,0.13
2023-01-19T18:48:43.597Z,0.15
2023-01-19T18:51:15.299Z,0.14
2023-01-19T18:53:43.435Z,0.13
2023-01-19T18:56:15.773Z,0.14
2023-01-19T18:58:44.074Z,0.14
2023-01-19T19:01:32.539Z,0.14
2023-01-19T19:04:00.138Z,0.13
2023-01-19T19:06:27.585Z,0.13
2023-01-19T19:08:58.015Z,0.11
2023-01-19T19:11:26.524Z,0.12
2023-01-19T19:13:56.365Z,0.11
2023-01-19T19:16:24.273Z,0.07
2023-01-19T19:18:51.159Z,0.08
2023-01-19T19:21:21.213Z,0.06
2023-01-19T19:23:54.425Z,0.07
2023-01-19T19:26:23.002Z,0.06
2023-01-19T19:28:49.865Z,0.06
2023-01-19T19:31:21.051Z,0.04
2023-01-19T19:33:50.921Z,0.03
2023-01-19T19:36:18.764Z,0.02
2023-01-19T19:38:47.567Z,0.02
2023-01-19T19:41:22.127Z,0.05
2023-01-19T19:43:49.862Z,0.06
2023-01-19T19:46:20.152Z,0.05
2023-01-19T19:48:48.738Z,0.06
2023-01-19T19:51:23.606Z,0.04
2023-01-19T19:53:51.814Z,0.01
2023-01-19T19:56:22.336Z,-0.01
2023-01-19T19:58:51.454Z,-0.01
2023-01-19T20:01:25.353Z,-0.03
2023-01-19T20:03:54.237Z,-0.04
2023-01-19T20:06:24.957Z,-0.04
2023-01-19T20:08:55.092Z,-0.02
2023-01-19T20:11:28.505Z,-0.05
2023-01-19T20:13:55.455Z,-0.04
2023-01-19T20:16:23.821Z,-0.07
2023-01-19T20:18:54.245Z,-0.06
2023-01-19T20:21:36.449Z,-0.07
2023-01-19T20:24:09.739Z,-0.09
2023-01-19T20:26:42.277Z,-0.10
2023-01-19T20:29:11.070Z,-0.10
2023-01-19T20:31:43.817Z,-0.13
2023-01-19T20:34:14.386Z,-0.16
2023-01-19T20:36:42.300Z,-0.18
2023-01-19T20:39:10.984Z,-0.15
2023-01-19T20:41:43.682Z,-0.14
2023-01-19T20:44:20.856Z,-0.15
2023-01-19T20:46:48.726Z,-0.16
2023-01-19T20:49:16.054Z,-0.16
2023-01-19T20:51:45.195Z,-0.11
2023-01-19T20:54:15.383Z,-0.06
2023-01-19T20:56:42.472Z,0.01
2023-01-19T20:59:11.691Z,0.10
2023-01-19T21:01:40.912Z,0.19
2023-01-19T21:04:09.031Z,0.24
2023-01-19T21:06:36.316Z,0.28
2023-01-19T21:09:04.422Z,0.28
2023-01-19T21:11:31.495Z,0.29
2023-01-19T21:13:58.624Z,0.27
2023-01-19T21:16:29.127Z,0.28
2023-01-19T21:18:56.356Z,0.26
2023-01-19T21:21:30.826Z,0.26
2023-01-19T21:24:01.267Z,0.27
2023-01-19T21:26:33.586Z,0.28
2023-01-19T21:29:02.489Z,0.27
2023-01-19T21:31:30.237Z,0.28
2023-01-19T21:33:58.197Z,0.28
2023-01-19T21:36:26.109Z,0.29
2023-01-19T21:38:55.356Z,0.26
2023-01-19T21:41:22.435Z,0.27
2023-01-19T21:43:49.318Z,0.27
2023-01-19T21:46:29.543Z,0.28
2023-01-19T21:49:00.011Z,0.25
2023-01-19T21:51:35.033Z,0.26
2023-01-19T21:54:04.224Z,0.28
2023-01-19T21:56:31.780Z,0.28
2023-01-19T21:59:02.169Z,0.30
2023-01-19T22:01:30.508Z,0.32
2023-01-19T22:03:58.945Z,0.34
2023-01-19T22:06:27.215Z,0.35
2023-01-19T22:08:54.933Z,0.37
2023-01-19T22:11:22.095Z,0.37
2023-01-19T22:13:49.035Z,0.36
2023-01-19T22:16:19.903Z,0.41
2023-01-19T22:18:53.956Z,0.46
2023-01-19T22:21:24.802Z,0.48
2023-01-19T22:23:55.485Z,0.47
2023-01-19T22:26:23.433Z,0.45
2023-01-19T22:28:59.028Z,0.44
2023-01-19T22:31:29.166Z,0.44
2023-01-19T22:33:57.375Z,0.45
2023-01-19T22:36:28.923Z,0.43
2023-01-19T22:38:58.626Z,0.45
2023-01-19T22:41:29.715Z,0.44
2023-01-19T22:44:00.575Z,0.45
2023-01-19T22:46:31.127Z,0.45
2023-01-19T22:48:59.554Z,0.44
2023-01-19T22:51:29.466Z,0.45
2023-01-19T22:53:56.815Z,0.45
2023-01-19T22:56:29.582Z,0.47
2023-01-19T22:58:58.237Z,0.47
2023-01-19T23:01:28.937Z,0.45
2023-01-19T23:03:56.377Z,0.46
2023-01-19T23:06:27.126Z,0.47
2023-01-19T23:09:04.888Z,0.47
2023-01-19T23:11:39.168Z,0.44
2023-01-19T23:14:09.553Z,0.42
2023-01-19T23:16:36.611Z,0.40
2023-01-19T23:19:05.233Z,0.40
2023-01-19T23:21:32.875Z,0.39
2023-01-19T23:24:02.944Z,0.34
2023-01-19T23:26:31.673Z,0.35
2023-01-19T23:29:01.768Z,0.36
2023-01-19T23:31:32.533Z,0.38
2023-01-19T23:34:03.900Z,0.39
2023-01-19T23:36:33.873Z,0.43
2023-01-19T23:39:06.377Z,0.44
2023-01-19T23:41:34.662Z,0.44
2023-01-19T23:44:02.117Z,0.44
2023-01-19T23:46:30.011Z,0.42
2023-01-19T23:48:56.975Z,0.44
2023-01-19T23:51:28.398Z,0.42
2023-01-19T23:53:57.705Z,0.45
2023-01-19T23:56:36.100Z,0.42
2023-01-19T23:59:06.042Z,0.38
